createdAt,value
2023-03-23T15:58:54.522Z,40.13
2023-03-23T16:01:27.155Z,40.27
2023-03-23T16:04:03.000Z,40.54
2023-03-23T16:06:33.573Z,40.68
2023-03-23T16:09:02.028Z,40.73
2023-03-23T16:11:33.891Z,41.10
2023-03-23T16:14:02.360Z,41.35
2023-03-23T16:16:37.623Z,41.76
2023-03-23T16:19:06.655Z,42.13
2023-03-23T16:21:36.426Z,42.54
2023-03-23T16:24:04.424Z,42.75
2023-03-23T16:26:34.496Z,43.31
2023-03-23T16:29:14.540Z,43.54
2023-03-23T16:31:45.075Z,44.11
2023-03-23T16:34:13.138Z,44.55
2023-03-23T16:36:41.007Z,45.15
2023-03-23T16:39:12.031Z,45.80
2023-03-23T16:41:41.403Z,45.97
2023-03-23T16:44:14.626Z,46.53
2023-03-23T16:46:42.995Z,46.93
2023-03-23T16:49:11.125Z,47.27
2023-03-23T16:51:42.998Z,47.48
2023-03-23T16:54:11.076Z,47.92
2023-03-23T16:56:49.591Z,48.18
2023-03-23T16:59:18.023Z,48.40
2023-03-23T17:01:45.936Z,48.78
2023-03-23T17:04:15.810Z,49.10
2023-03-23T17:06:46.774Z,49.35
2023-03-23T17:09:14.805Z,49.67
2023-03-23T17:11:44.323Z,50.12
2023-03-23T17:14:12.981Z,50.39
2023-03-23T17:16:42.639Z,50.78
2023-03-23T17:19:16.759Z,51.14
2023-03-23T17:21:44.769Z,51.36
2023-03-23T17:24:21.030Z,51.70
2023-03-23T17:26:49.475Z,52.12
2023-03-23T17:29:17.714Z,52.36
2023-03-23T17:31:45.951Z,52.61
2023-03-23T17:34:13.882Z,52.93
2023-03-23T17:36:44.525Z,53.13
2023-03-23T17:39:12.669Z,53.46
2023-03-23T17:41:40.669Z,53.75
2023-03-23T17:44:09.903Z,54.03
2023-03-23T17:46:39.037Z,54.29
2023-03-23T17:49:07.070Z,54.42
2023-03-23T17:51:36.571Z,54.60
2023-03-23T17:54:04.425Z,54.76
2023-03-23T17:56:38.736Z,54.95
2023-03-23T17:59:07.929Z,55.09
2023-03-23T18:01:36.065Z,55.41
2023-03-23T18:04:06.293Z,55.54
2023-03-23T18:06:34.572Z,55.80
2023-03-23T18:09:03.724Z,56.10
2023-03-23T18:11:32.328Z,56.50
2023-03-23T18:14:00.606Z,56.66
2023-03-23T18:16:34.768Z,56.76
2023-03-23T18:19:04.195Z,56.87
2023-03-23T18:21:32.680Z,57.13
2023-03-23T18:24:01.725Z,57.31
2023-03-23T18:26:29.995Z,57.59
2023-03-23T18:28:57.795Z,57.72
2023-03-23T18:31:26.014Z,57.61
2023-03-23T18:33:55.400Z,57.71
2023-03-23T18:36:25.690Z,57.87
2023-03-23T18:38:56.130Z,58.18
2023-03-23T18:41:24.161Z,58.41
2023-03-23T18:43:52.222Z,58.63
2023-03-23T18:46:20.417Z,58.70
2023-03-23T18:48:48.513Z,58.85
2023-03-23T18:51:16.448Z,58.97
2023-03-23T18:53:44.576Z,59.32
2023-03-23T18:56:14.222Z,59.70
2023-03-23T18:58:42.095Z,59.87
2023-03-23T19:01:12.693Z,60.11
2023-03-23T19:03:41.216Z,60.23
2023-03-23T19:06:21.241Z,60.43
2023-03-23T19:08:49.587Z,60.55
2023-03-23T19:11:17.557Z,60.81
2023-03-23T19:13:58.182Z,61.13
2023-03-23T19:16:35.806Z,61.11
2023-03-23T19:19:08.325Z,61.26
2023-03-23T19:24:07.111Z,61.52
2023-03-23T19:26:38.300Z,61.61
2023-03-23T19:31:38.518Z,61.77
2023-03-23T19:34:06.726Z,61.71
2023-03-23T19:36:36.892Z,61.85
2023-03-23T19:39:06.553Z,61.94
2023-03-23T19:41:36.266Z,62.11
2023-03-23T19:44:08.517Z,62.23
2023-03-23T19:46:36.484Z,62.36
2023-03-23T19:49:04.443Z,62.54
2023-03-23T19:51:32.803Z,62.71
2023-03-23T19:54:01.046Z,62.88
2023-03-23T19:56:32.594Z,63.05
2023-03-23T19:59:01.534Z,63.22
2023-03-23T20:01:29.693Z,63.12
2023-03-23T20:04:06.965Z,63.11
2023-03-23T20:06:35.546Z,63.12
2023-03-23T20:09:06.297Z,63.16
2023-03-23T20:11:34.579Z,63.08
2023-03-23T20:14:04.332Z,63.18
2023-03-23T20:16:32.856Z,63.02
2023-03-23T20:19:00.836Z,63.02
2023-03-23T20:21:28.885Z,63.08
2023-03-23T20:23:57.803Z,63.05
2023-03-23T20:26:38.654Z,63.03
2023-03-23T20:29:08.027Z,62.99
2023-03-23T20:31:38.208Z,62.90
2023-03-23T20:34:11.079Z,62.88
2023-03-23T20:36:42.297Z,62.92
2023-03-23T20:39:21.078Z,62.91
2023-03-23T20:41:50.983Z,62.80
2023-03-23T20:44:19.937Z,62.80
2023-03-23T20:46:49.951Z,62.86
2023-03-23T20:49:18.542Z,62.71
2023-03-23T20:51:47.097Z,62.28
2023-03-23T20:54:15.818Z,62.16
2023-03-23T20:56:44.469Z,62.21
2023-03-23T20:59:16.020Z,62.12
2023-03-23T21:01:44.802Z,61.88
2023-03-23T21:04:17.321Z,61.88
2023-03-23T21:06:48.897Z,61.84
2023-03-23T21:09:17.525Z,62.00
2023-03-23T21:11:46.366Z,62.08
2023-03-23T21:14:16.427Z,62.15
2023-03-23T21:16:45.146Z,62.27
2023-03-23T21:19:21.388Z,62.35
2023-03-23T21:21:56.613Z,62.54
2023-03-23T21:24:28.859Z,62.74
2023-03-23T21:26:59.932Z,62.91
2023-03-23T21:29:28.836Z,63.11
2023-03-23T21:34:30.020Z,63.61
2023-03-23T21:36:58.233Z,63.59
2023-03-23T21:39:28.275Z,63.81
2023-03-23T21:41:56.449Z,63.92
2023-03-23T21:44:24.427Z,64.04
2023-03-23T21:46:52.619Z,64.11
2023-03-23T21:49:20.645Z,64.09
2023-03-23T21:51:49.654Z,64.14
2023-03-23T21:54:17.563Z,64.13
2023-03-23T21:56:46.112Z,64.24
2023-03-23T21:59:16.932Z,64.22
2023-03-23T22:01:45.071Z,64.23
2023-03-23T22:04:13.080Z,64.27
2023-03-23T22:06:44.665Z,64.23
2023-03-23T22:09:12.657Z,64.17
2023-03-23T22:11:40.909Z,64.03
2023-03-23T22:14:14.410Z,63.70
2023-03-23T22:16:46.135Z,63.37
2023-03-23T22:19:14.339Z,62.91
2023-03-23T22:21:46.607Z,62.53
2023-03-23T22:24:16.016Z,62.10
2023-03-23T22:26:45.626Z,61.69
2023-03-23T22:29:16.898Z,61.42
2023-03-23T22:31:45.571Z,61.02
2023-03-23T22:34:13.527Z,60.71
2023-03-23T22:36:41.597Z,60.28
2023-03-23T22:39:09.883Z,60.09
2023-03-23T22:41:40.613Z,59.82
2023-03-23T22:44:12.910Z,59.63
2023-03-23T22:46:40.866Z,59.34
2023-03-23T22:49:11.403Z,58.99
2023-03-23T22:51:40.235Z,58.69
2023-03-23T22:54:13.066Z,58.52
2023-03-23T22:56:41.030Z,58.28
2023-03-23T22:59:09.934Z,58.10
2023-03-23T23:01:38.071Z,57.82
2023-03-23T23:04:06.634Z,57.59
2023-03-23T23:06:34.612Z,57.31
2023-03-23T23:09:02.589Z,57.18
2023-03-23T23:11:31.970Z,57.06
2023-03-23T23:14:01.341Z,56.93
2023-03-23T23:16:30.274Z,56.70
2023-03-23T23:18:58.439Z,56.61
2023-03-23T23:21:28.971Z,56.42
2023-03-23T23:23:57.189Z,56.26
2023-03-23T23:26:25.271Z,56.23
2023-03-23T23:28:54.067Z,56.18
2023-03-23T23:31:31.432Z,56.07
2023-03-23T23:34:00.857Z,55.82
2023-03-23T23:36:30.108Z,55.84
2023-03-23T23:38:59.804Z,55.91
2023-03-23T23:41:34.057Z,55.77
2023-03-23T23:44:02.498Z,55.65
2023-03-23T23:46:31.545Z,55.78
2023-03-23T23:48:59.828Z,55.72
2023-03-23T23:51:28.818Z,55.67
2023-03-23T23:53:59.127Z,55.64
2023-03-23T23:56:28.071Z,55.58
2023-03-23T23:58:56.627Z,55.52
